Time;durP1;ratioP1;P1;durP2;ratioP2;P2;SDS_P1;SDS_P2;PMS_P1;PMS_P2;Temp;Humidity;BMP_temperature;BMP_pressure;BME280_temperature;BME280_humidity;BME280_pressure;Samples;Min_cycle;Max_cycle;Signal;HPM_P1;HPM_P2
2022/01/22 00:00:12;;;;;;;3.53;1.15;;;;;;;;;;5042899;28;20033;-69
2022/01/22 00:02:39;;;;;;;3.60;1.13;;;;;;;;;;5024581;28;20026;-69
2022/01/22 00:05:08;;;;;;;2.47;1.05;;;;;;;;;;5061845;28;20052;-69
2022/01/22 00:07:33;;;;;;;5.35;1.15;;;;;;;;;;5062355;28;20088;-69
2022/01/22 00:10:04;;;;;;;4.40;0.90;;;;;;;;;;5062109;28;20148;-69
2022/01/22 00:14:55;;;;;;;6.22;1.20;;;;;;;;;;5062030;28;20044;-69
2022/01/22 00:17:20;;;;;;;2.50;1.10;;;;;;;;;;5062483;28;20049;-70
2022/01/22 00:19:46;;;;;;;3.15;0.93;;;;;;;;;;5062316;28;20025;-68
2022/01/22 00:22:12;;;;;;;2.83;1.05;;;;;;;;;;5062334;28;20429;-71
2022/01/22 00:24:39;;;;;;;3.45;1.08;;;;;;;;;;5061851;28;20064;-68
2022/01/22 00:27:05;;;;;;;4.28;0.90;;;;;;;;;;5061831;28;20047;-69
2022/01/22 00:29:31;;;;;;;5.32;1.00;;;;;;;;;;5062029;28;20501;-70
2022/01/22 00:31:57;;;;;;;5.88;1.55;;;;;;;;;;5062284;28;20029;-70
2022/01/22 00:34:22;;;;;;;8.80;1.33;;;;;;;;;;5063225;28;20039;-71
2022/01/22 00:36:48;;;;;;;3.85;1.20;;;;;;;;;;5066644;28;20040;-71
2022/01/22 00:39:16;;;;;;;5.45;1.50;;;;;;;;;;5066596;28;20029;-69
2022/01/22 00:41:41;;;;;;;2.10;0.95;;;;;;;;;;5066640;28;20039;-69
2022/01/22 00:44:07;;;;;;;5.35;1.42;;;;;;;;;;5066592;28;20033;-69
2022/01/22 00:46:32;;;;;;;3.35;0.88;;;;;;;;;;5066500;28;20417;-71
2022/01/22 00:48:58;;;;;;;3.08;0.93;;;;;;;;;;5065931;28;20092;-70
2022/01/22 00:51:24;;;;;;;5.82;1.00;;;;;;;;;;5066372;28;20064;-69
2022/01/22 00:53:49;;;;;;;2.78;1.10;;;;;;;;;;5065838;28;20044;-68
2022/01/22 00:56:15;;;;;;;4.32;1.27;;;;;;;;;;5066025;28;20091;-67
2022/01/22 00:58:44;;;;;;;5.82;1.23;;;;;;;;;;5065602;28;20037;-70
2022/01/22 01:01:09;;;;;;;5.40;1.50;;;;;;;;;;5065555;28;20137;-70
2022/01/22 01:03:35;;;;;;;4.63;1.35;;;;;;;;;;5065597;28;20057;-69
2022/01/22 01:06:07;;;;;;;2.35;1.30;;;;;;;;;;5065926;28;20424;-70
2022/01/22 01:08:35;;;;;;;5.10;1.25;;;;;;;;;;5065771;28;20111;-71
2022/01/22 01:11:01;;;;;;;4.70;1.35;;;;;;;;;;5065669;28;20087;-70
2022/01/22 01:13:30;;;;;;;3.88;1.27;;;;;;;;;;5065588;28;20352;-68
2022/01/22 01:34:42;;;;;;;2.80;1.17;;;;;;;;;;5065214;28;20040;-68
2022/01/22 01:37:08;;;;;;;2.97;1.50;;;;;;;;;;5047723;28;20025;-69
2022/01/22 01:39:36;;;;;;;4.80;1.52;;;;;;;;;;5046759;28;20029;-68
2022/01/22 01:42:12;;;;;;;7.32;1.15;;;;;;;;;;5064804;28;20358;-69
2022/01/22 01:44:39;;;;;;;2.70;1.08;;;;;;;;;;5065161;28;20087;-69
2022/01/22 01:47:06;;;;;;;4.97;1.27;;;;;;;;;;5046201;28;20624;-70
2022/01/22 01:49:32;;;;;;;2.40;1.20;;;;;;;;;;5065058;28;20085;-69
2022/01/22 01:52:01;;;;;;;4.68;2.00;;;;;;;;;;5065284;28;20032;-69
2022/01/22 01:54:47;;;;;;;2.63;1.30;;;;;;;;;;5064761;28;20056;-69
2022/01/22 01:59:52;;;;;;;4.80;1.05;;;;;;;;;;5064607;28;20539;-69
2022/01/22 02:02:17;;;;;;;8.75;2.47;;;;;;;;;;5064968;28;20033;-69
2022/01/22 02:04:43;;;;;;;2.78;1.17;;;;;;;;;;5062857;28;20048;-69
2022/01/22 02:07:11;;;;;;;6.07;1.25;;;;;;;;;;5067098;28;20054;-69
2022/01/22 02:09:39;;;;;;;6.07;1.90;;;;;;;;;;5085011;28;20032;-68
2022/01/22 02:12:12;;;;;;;6.00;1.30;;;;;;;;;;5066743;28;20059;-70
2022/01/22 02:25:18;;;;;;;3.03;1.20;;;;;;;;;;5084610;28;20121;-70
2022/01/22 02:27:44;;;;;;;6.05;1.27;;;;;;;;;;5084552;28;20029;-69
2022/01/22 02:30:17;;;;;;;4.32;1.10;;;;;;;;;;5084370;28;20485;-69
2022/01/22 02:33:09;;;;;;;4.20;1.20;;;;;;;;;;5084305;28;20052;-68
2022/01/22 02:36:01;;;;;;;3.05;1.35;;;;;;;;;;5082705;28;20040;-70
2022/01/22 02:38:36;;;;;;;5.43;1.20;;;;;;;;;;5083302;28;20120;-71
2022/01/22 02:41:01;;;;;;;3.72;1.20;;;;;;;;;;5084599;28;20592;-69
2022/01/22 02:43:29;;;;;;;3.03;1.00;;;;;;;;;;5084291;28;20052;-69
2022/01/22 02:45:59;;;;;;;2.70;1.05;;;;;;;;;;5084585;28;20036;-69
2022/01/22 02:48:25;;;;;;;3.60;1.10;;;;;;;;;;5084344;28;20020;-69
2022/01/22 02:50:50;;;;;;;8.63;1.50;;;;;;;;;;5084153;28;20348;-71
2022/01/22 02:53:15;;;;;;;4.15;0.98;;;;;;;;;;5083717;28;20037;-69
2022/01/22 02:55:43;;;;;;;9.35;1.55;;;;;;;;;;5084190;28;20024;-70
2022/01/22 02:58:08;;;;;;;1.83;1.10;;;;;;;;;;5065884;28;20047;-69
2022/01/22 03:00:34;;;;;;;5.00;1.70;;;;;;;;;;5084372;28;20020;-69
2022/01/22 03:03:00;;;;;;;2.60;1.02;;;;;;;;;;5083532;28;20043;-70
2022/01/22 03:05:26;;;;;;;3.10;1.10;;;;;;;;;;5063895;28;20037;-69
2022/01/22 03:07:54;;;;;;;5.35;1.10;;;;;;;;;;5062902;28;20043;-70
2022/01/22 03:10:24;;;;;;;2.53;1.08;;;;;;;;;;5062404;28;20124;-69
2022/01/22 03:14:04;;;;;;;3.13;1.23;;;;;;;;;;5078705;28;20047;-69
2022/01/22 03:21:09;;;;;;;3.22;1.13;;;;;;;;;;5063217;28;20036;-69
2022/01/22 03:29:08;;;;;;;2.42;1.20;;;;;;;;;;5063785;28;19919;-69
2022/01/22 03:31:35;;;;;;;5.68;1.48;;;;;;;;;;5063256;28;20064;-69
2022/01/22 03:34:01;;;;;;;4.25;1.27;;;;;;;;;;5062647;28;20516;-69
2022/01/22 03:36:32;;;;;;;5.60;2.30;;;;;;;;;;5063201;28;20021;-71
2022/01/22 03:38:58;;;;;;;3.03;1.10;;;;;;;;;;5062034;28;20040;-69
2022/01/22 03:41:23;;;;;;;6.43;1.40;;;;;;;;;;5063082;28;20432;-68
2022/01/22 03:43:50;;;;;;;4.28;1.15;;;;;;;;;;5063119;28;20112;-69
2022/01/22 03:46:19;;;;;;;5.22;1.33;;;;;;;;;;5062108;28;20426;-69
2022/01/22 03:48:44;;;;;;;3.95;1.17;;;;;;;;;;5063006;28;20033;-70
2022/01/22 03:51:10;;;;;;;4.03;1.45;;;;;;;;;;5063294;28;20052;-68
2022/01/22 03:53:38;;;;;;;4.78;1.33;;;;;;;;;;5063397;28;20033;-68
2022/01/22 03:56:07;;;;;;;2.03;1.15;;;;;;;;;;5063333;28;20073;-69
2022/01/22 03:58:39;;;;;;;2.05;1.48;;;;;;;;;;5062844;28;20032;-69
2022/01/22 04:04:08;;;;;;;7.13;1.65;;;;;;;;;;5062529;28;20059;-70
2022/01/22 04:09:05;;;;;;;4.97;1.10;;;;;;;;;;5062568;28;20053;-68
2022/01/22 04:11:32;;;;;;;3.72;1.02;;;;;;;;;;5062950;28;20025;-69
2022/01/22 04:13:59;;;;;;;2.78;1.00;;;;;;;;;;5062271;28;20025;-69
2022/01/22 04:16:27;;;;;;;2.75;1.20;;;;;;;;;;5063160;28;20021;-68
2022/01/22 04:27:11;;;;;;;;;;;;;;;;;;5062728;28;20036;-69
2022/01/22 04:29:36;;;;;;;2.88;1.17;;;;;;;;;;5062157;28;19916;-68
2022/01/22 04:32:03;;;;;;;3.58;1.50;;;;;;;;;;5062397;28;20045;-70
2022/01/22 04:34:28;;;;;;;4.15;1.20;;;;;;;;;;5044038;28;20025;-70
2022/01/22 04:36:54;;;;;;;5.13;1.17;;;;;;;;;;5062581;28;20030;-70
2022/01/22 04:39:21;;;;;;;3.13;1.40;;;;;;;;;;5062418;28;20049;-69
2022/01/22 04:41:47;;;;;;;4.32;1.30;;;;;;;;;;5061835;28;20027;-70
2022/01/22 04:44:13;;;;;;;5.03;1.13;;;;;;;;;;5062398;28;20045;-69
2022/01/22 04:52:28;;;;;;;;;;;;;;;;;;5063100;28;20037;-69
2022/01/22 04:55:00;;;;;;;2.65;0.93;;;;;;;;;;5061798;28;20032;-68
2022/01/22 04:57:27;;;;;;;5.68;1.35;;;;;;;;;;5062740;28;20078;-69
2022/01/22 04:59:52;;;;;;;4.90;1.27;;;;;;;;;;5061979;28;20037;-69
2022/01/22 05:02:18;;;;;;;3.33;1.27;;;;;;;;;;5060960;28;20199;-68
2022/01/22 05:04:43;;;;;;;3.83;1.10;;;;;;;;;;5061709;28;20091;-69
2022/01/22 05:07:10;;;;;;;7.55;1.55;;;;;;;;;;5061534;28;20547;-71
2022/01/22 05:09:35;;;;;;;2.80;1.02;;;;;;;;;;5060331;28;20068;-70
2022/01/22 05:12:01;;;;;;;3.92;1.23;;;;;;;;;;5060874;28;20028;-71
2022/01/22 05:14:27;;;;;;;6.30;1.85;;;;;;;;;;5061297;28;20048;-70
2022/01/22 05:16:55;;;;;;;4.47;1.30;;;;;;;;;;5061925;28;20029;-67
2022/01/22 05:19:29;;;;;;;3.97;1.25;;;;;;;;;;5062158;28;20041;-70
2022/01/22 05:22:00;;;;;;;;;;;;;;;;;;5064744;28;20039;-68
2022/01/22 05:24:29;;;;;;;5.32;1.10;;;;;;;;;;5065909;28;19916;-69
2022/01/22 05:27:32;;;;;;;3.92;1.20;;;;;;;;;;5065644;28;20100;-69
2022/01/22 05:30:02;;;;;;;3.85;1.10;;;;;;;;;;5063562;28;20049;-68
2022/01/22 05:37:40;;;;;;;4.88;1.50;;;;;;;;;;5064632;28;20040;-71
2022/01/22 05:40:09;;;;;;;2.53;1.00;;;;;;;;;;5064632;28;20029;-68
2022/01/22 05:42:36;;;;;;;4.82;1.38;;;;;;;;;;5064307;28;20032;-68
2022/01/22 05:45:06;;;;;;;5.80;1.10;;;;;;;;;;5065479;28;20092;-69
2022/01/22 05:47:31;;;;;;;3.17;1.33;;;;;;;;;;5065740;28;20033;-71
2022/01/22 05:49:58;;;;;;;2.22;0.93;;;;;;;;;;5065212;28;20035;-68
2022/01/22 05:52:35;;;;;;;3.95;1.15;;;;;;;;;;5065579;28;20325;-69
2022/01/22 05:55:25;;;;;;;2.92;1.10;;;;;;;;;;5065511;28;20025;-71
2022/01/22 06:00:34;;;;;;;1.50;1.00;;;;;;;;;;5065585;28;20059;-69
2022/01/22 06:03:00;;;;;;;3.88;1.10;;;;;;;;;;5064727;28;20052;-70
2022/01/22 06:05:25;;;;;;;2.63;1.00;;;;;;;;;;5045511;28;20045;-70
2022/01/22 06:07:51;;;;;;;5.10;1.00;;;;;;;;;;5045434;28;20060;-68
2022/01/22 06:10:18;;;;;;;3.92;1.38;;;;;;;;;;5045164;28;20030;-70
2022/01/22 06:13:09;;;;;;;1.92;1.00;;;;;;;;;;5044851;28;20120;-69
2022/01/22 06:15:32;;;;;;;1.77;0.77;;;;;;;;;;5044538;28;20033;-69
2022/01/22 06:17:58;;;;;;;6.10;1.45;;;;;;;;;;5044555;28;20068;-70
2022/01/22 06:20:23;;;;;;;2.83;1.00;;;;;;;;;;5043027;28;20029;-70
2022/01/22 06:22:49;;;;;;;7.15;1.67;;;;;;;;;;5044222;28;20053;-68
2022/01/22 06:25:14;;;;;;;5.78;1.50;;;;;;;;;;5044472;28;20029;-69
2022/01/22 06:27:42;;;;;;;2.53;0.93;;;;;;;;;;5044420;28;20056;-69
2022/01/22 06:30:09;;;;;;;1.40;0.80;;;;;;;;;;5044784;28;20033;-69
2022/01/22 06:32:34;;;;;;;3.60;1.00;;;;;;;;;;5044054;28;20083;-69
2022/01/22 06:35:00;;;;;;;3.90;1.40;;;;;;;;;;5044750;28;20116;-68
2022/01/22 06:37:27;;;;;;;3.42;1.33;;;;;;;;;;5044604;28;20036;-68
2022/01/22 06:42:38;;;;;;;2.63;1.08;;;;;;;;;;5022831;28;20101;-69
2022/01/22 06:45:06;;;;;;;5.15;1.33;;;;;;;;;;5044322;28;20044;-69
2022/01/22 06:47:35;;;;;;;3.25;1.25;;;;;;;;;;5044185;28;20086;-69
2022/01/22 06:50:01;;;;;;;5.68;1.80;;;;;;;;;;5045034;28;20037;-68
2022/01/22 06:52:28;;;;;;;3.25;1.30;;;;;;;;;;5044231;28;20091;-68
2022/01/22 06:54:54;;;;;;;4.57;1.55;;;;;;;;;;5044283;28;20060;-68
2022/01/22 06:57:19;;;;;;;4.43;1.23;;;;;;;;;;5043943;28;20026;-69
2022/01/22 06:59:49;;;;;;;6.15;1.65;;;;;;;;;;5044044;28;20130;-70
2022/01/22 07:02:18;;;;;;;5.95;1.30;;;;;;;;;;5025942;28;20026;-69
2022/01/22 07:04:44;;;;;;;4.82;1.35;;;;;;;;;;5025666;28;20094;-69
2022/01/22 07:07:10;;;;;;;5.63;1.70;;;;;;;;;;5043986;28;20450;-68
2022/01/22 07:09:39;;;;;;;4.55;1.50;;;;;;;;;;5042861;28;20081;-70
2022/01/22 07:12:06;;;;;;;5.40;1.70;;;;;;;;;;5043873;28;20056;-69
2022/01/22 07:14:31;;;;;;;4.68;1.35;;;;;;;;;;5043636;28;20029;-69
2022/01/22 07:17:00;;;;;;;4.45;0.98;;;;;;;;;;5043782;28;20091;-69
2022/01/22 07:19:25;;;;;;;3.47;1.30;;;;;;;;;;5025866;28;20025;-69
2022/01/22 07:22:03;;;;;;;1.60;1.10;;;;;;;;;;5043813;28;20040;-68
2022/01/22 07:24:37;;;;;;;3.88;1.38;;;;;;;;;;5043799;28;20030;-68
2022/01/22 07:27:03;;;;;;;1.92;1.15;;;;;;;;;;5043561;28;20097;-69
2022/01/22 07:29:29;;;;;;;1.80;1.10;;;;;;;;;;5043440;28;20056;-68
2022/01/22 07:31:54;;;;;;;8.32;1.83;;;;;;;;;;5043664;28;20056;-69
2022/01/22 07:34:20;;;;;;;4.15;1.38;;;;;;;;;;5025466;28;20133;-68
2022/01/22 07:36:45;;;;;;;4.68;1.45;;;;;;;;;;5043094;28;20036;-70
2022/01/22 07:39:11;;;;;;;4.43;1.35;;;;;;;;;;5043164;28;20026;-69
2022/01/22 07:41:37;;;;;;;4.75;1.35;;;;;;;;;;5043075;28;20052;-69
2022/01/22 07:44:03;;;;;;;4.07;1.30;;;;;;;;;;5042389;28;20053;-68
2022/01/22 07:46:29;;;;;;;4.15;1.40;;;;;;;;;;5043190;28;20097;-69
2022/01/22 07:48:57;;;;;;;5.72;1.48;;;;;;;;;;5042920;28;20053;-70
2022/01/22 07:51:25;;;;;;;2.30;1.20;;;;;;;;;;5043186;28;20021;-70
2022/01/22 07:53:50;;;;;;;5.25;1.40;;;;;;;;;;5042701;28;20375;-69
2022/01/22 07:56:16;;;;;;;5.05;1.30;;;;;;;;;;5042593;28;20026;-69
2022/01/22 07:58:41;;;;;;;3.47;1.17;;;;;;;;;;5042551;28;20034;-70
2022/01/22 08:01:10;;;;;;;3.83;1.17;;;;;;;;;;5024367;28;20124;-70
2022/01/22 08:03:36;;;;;;;2.78;1.20;;;;;;;;;;5046621;28;20095;-69
2022/01/22 08:06:03;;;;;;;3.13;1.23;;;;;;;;;;5062256;28;20052;-69
2022/01/22 08:08:28;;;;;;;3.15;1.27;;;;;;;;;;5061082;28;20397;-71
2022/01/22 08:10:56;;;;;;;5.63;1.75;;;;;;;;;;5062618;28;20103;-69
2022/01/22 08:13:21;;;;;;;4.88;1.42;;;;;;;;;;5061433;28;20051;-69
2022/01/22 08:15:47;;;;;;;3.97;1.42;;;;;;;;;;5062374;28;20048;-68
2022/01/22 08:18:12;;;;;;;4.78;1.67;;;;;;;;;;5062388;28;20037;-70
2022/01/22 08:20:38;;;;;;;4.65;1.60;;;;;;;;;;5062654;28;20025;-68
2022/01/22 08:23:06;;;;;;;5.03;1.70;;;;;;;;;;5062232;28;20219;-69
2022/01/22 08:25:33;;;;;;;4.25;1.10;;;;;;;;;;5062746;28;20052;-69
2022/01/22 08:30:34;;;;;;;4.97;1.45;;;;;;;;;;5062619;28;20025;-69
2022/01/22 08:33:33;;;;;;;5.00;1.50;;;;;;;;;;5062463;28;20124;-69
2022/01/22 08:35:59;;;;;;;2.63;1.33;;;;;;;;;;5062054;28;20032;-68
2022/01/22 08:38:28;;;;;;;5.20;1.52;;;;;;;;;;5062463;28;20041;-68
2022/01/22 08:40:54;;;;;;;3.75;1.35;;;;;;;;;;5062288;28;20529;-69
2022/01/22 08:43:20;;;;;;;3.58;1.30;;;;;;;;;;5061145;28;20017;-68
2022/01/22 08:45:49;;;;;;;6.18;1.27;;;;;;;;;;5062600;28;20033;-69
2022/01/22 08:48:15;;;;;;;5.40;1.50;;;;;;;;;;5062084;28;20512;-69
2022/01/22 08:50:41;;;;;;;2.60;1.30;;;;;;;;;;5062741;28;20039;-68
2022/01/22 08:53:06;;;;;;;4.97;1.70;;;;;;;;;;5062046;28;20048;-68
2022/01/22 08:55:32;;;;;;;5.65;1.48;;;;;;;;;;5064144;28;20465;-68
2022/01/22 08:57:58;;;;;;;4.63;1.42;;;;;;;;;;5065576;28;20081;-68
2022/01/22 09:00:23;;;;;;;3.35;1.20;;;;;;;;;;5066209;28;20037;-68
2022/01/22 09:02:49;;;;;;;5.80;1.40;;;;;;;;;;5066242;28;20025;-69
2022/01/22 09:05:18;;;;;;;3.20;1.60;;;;;;;;;;5064561;28;20401;-69
2022/01/22 09:07:44;;;;;;;4.13;1.30;;;;;;;;;;5065514;28;20029;-69
2022/01/22 09:10:10;;;;;;;7.97;1.20;;;;;;;;;;5064148;28;20397;-68
2022/01/22 09:12:36;;;;;;;6.32;1.20;;;;;;;;;;5065973;28;20033;-68
2022/01/22 09:15:12;;;;;;;6.18;1.67;;;;;;;;;;5065442;28;20071;-70
2022/01/22 09:17:37;;;;;;;3.38;1.13;;;;;;;;;;5065710;28;20029;-70
2022/01/22 09:20:09;;;;;;;4.70;1.20;;;;;;;;;;5065460;28;20021;-69
2022/01/22 09:22:37;;;;;;;4.35;1.30;;;;;;;;;;5065551;28;20033;-69
2022/01/22 09:25:07;;;;;;;4.75;1.30;;;;;;;;;;5065783;28;20383;-68
2022/01/22 09:27:37;;;;;;;2.60;1.30;;;;;;;;;;5065302;28;20029;-69
2022/01/22 09:30:11;;;;;;;6.32;1.27;;;;;;;;;;5085377;28;20016;-69
2022/01/22 09:32:37;;;;;;;2.63;1.05;;;;;;;;;;5085085;28;20028;-70
2022/01/22 09:35:06;;;;;;;4.97;1.42;;;;;;;;;;5085547;28;20080;-70
2022/01/22 09:37:36;;;;;;;3.45;1.38;;;;;;;;;;5084821;28;20035;-68
2022/01/22 09:40:05;;;;;;;6.60;1.05;;;;;;;;;;5084369;28;20087;-68
2022/01/22 09:42:33;;;;;;;4.47;1.45;;;;;;;;;;5084037;28;20028;-68
2022/01/22 09:45:06;;;;;;;3.67;1.08;;;;;;;;;;5084967;28;20525;-70
2022/01/22 09:47:32;;;;;;;2.08;1.20;;;;;;;;;;5085084;28;20025;-68
2022/01/22 09:50:01;;;;;;;3.13;1.27;;;;;;;;;;5084208;28;20230;-70
2022/01/22 09:52:30;;;;;;;4.05;1.20;;;;;;;;;;5084471;28;20450;-68
2022/01/22 09:54:56;;;;;;;3.50;1.23;;;;;;;;;;5083932;28;20032;-68
2022/01/22 09:57:27;;;;;;;4.10;1.30;;;;;;;;;;5085202;28;20236;-69
2022/01/22 09:59:52;;;;;;;3.45;1.17;;;;;;;;;;5066908;28;20123;-68
2022/01/22 10:02:24;;;;;;;4.82;1.40;;;;;;;;;;5084732;28;20063;-68
2022/01/22 10:04:52;;;;;;;4.25;1.45;;;;;;;;;;5085268;28;20089;-69
2022/01/22 10:07:24;;;;;;;5.75;1.30;;;;;;;;;;5084356;28;20043;-68
2022/01/22 10:10:04;;;;;;;4.45;1.55;;;;;;;;;;5085208;28;20082;-69
2022/01/22 10:12:42;;;;;;;4.20;1.95;;;;;;;;;;5084305;28;20036;-68
2022/01/22 10:15:10;;;;;;;1.98;1.13;;;;;;;;;;5084678;28;20032;-70
2022/01/22 10:17:49;;;;;;;4.05;1.40;;;;;;;;;;5066595;28;20033;-69
2022/01/22 10:20:37;;;;;;;4.22;1.73;;;;;;;;;;5084694;28;20024;-69
2022/01/22 10:23:39;;;;;;;3.92;1.10;;;;;;;;;;5083357;28;20067;-70
2022/01/22 10:26:07;;;;;;;3.08;1.20;;;;;;;;;;5032022;28;20095;-69
2022/01/22 10:28:46;;;;;;;2.88;1.20;;;;;;;;;;5084499;28;20051;-68
2022/01/22 10:31:24;;;;;;;4.03;1.33;;;;;;;;;;5066551;28;20020;-70
2022/01/22 10:34:07;;;;;;;2.10;1.05;;;;;;;;;;5084443;28;20020;-68
2022/01/22 10:36:32;;;;;;;7.05;1.20;;;;;;;;;;5084766;28;20063;-69
2022/01/22 10:38:58;;;;;;;6.03;1.65;;;;;;;;;;5084671;28;20052;-70
2022/01/22 10:41:38;;;;;;;4.70;1.30;;;;;;;;;;5083068;28;20500;-68
2022/01/22 10:44:07;;;;;;;10.88;1.58;;;;;;;;;;5084141;28;20032;-69
2022/01/22 10:46:44;;;;;;;3.17;0.93;;;;;;;;;;5066144;28;20020;-69
2022/01/22 10:49:19;;;;;;;3.90;1.38;;;;;;;;;;5084286;28;20098;-68
2022/01/22 10:51:50;;;;;;;3.15;1.35;;;;;;;;;;5083857;28;20036;-68
2022/01/22 10:54:17;;;;;;;5.40;1.25;;;;;;;;;;5084038;28;20098;-69
2022/01/22 10:56:44;;;;;;;2.95;1.20;;;;;;;;;;5084192;28;20032;-69
2022/01/22 10:59:12;;;;;;;3.45;1.33;;;;;;;;;;5083901;28;20143;-69
2022/01/22 11:01:56;;;;;;;2.70;1.30;;;;;;;;;;5084046;28;20029;-68
2022/01/22 11:04:41;;;;;;;3.83;1.70;;;;;;;;;;5083495;28;20047;-69
2022/01/22 11:07:09;;;;;;;3.53;1.20;;;;;;;;;;5083967;28;20033;-69
2022/01/22 11:09:36;;;;;;;4.43;1.00;;;;;;;;;;5083754;28;20024;-70
2022/01/22 11:12:04;;;;;;;2.30;1.13;;;;;;;;;;5066179;28;20100;-70
2022/01/22 11:14:34;;;;;;;3.42;1.20;;;;;;;;;;5083279;28;20034;-69
2022/01/22 11:17:00;;;;;;;3.25;1.42;;;;;;;;;;5083575;28;20088;-70
2022/01/22 11:19:32;;;;;;;2.92;1.20;;;;;;;;;;5082322;28;20477;-70
2022/01/22 11:22:11;;;;;;;2.22;1.20;;;;;;;;;;5083677;28;20177;-68
2022/01/22 11:24:49;;;;;;;3.03;1.27;;;;;;;;;;5082298;28;20066;-69
2022/01/22 11:27:20;;;;;;;2.60;1.70;;;;;;;;;;5083342;28;20077;-69
2022/01/22 11:29:58;;;;;;;1.80;1.13;;;;;;;;;;5083367;28;20017;-69
2022/01/22 11:32:52;;;;;;;3.65;1.40;;;;;;;;;;5083523;28;20123;-68
2022/01/22 11:35:53;;;;;;;3.47;1.17;;;;;;;;;;5065531;28;20090;-69
2022/01/22 11:38:31;;;;;;;2.63;1.20;;;;;;;;;;5050439;28;20439;-68
2022/01/22 11:41:07;;;;;;;4.22;1.60;;;;;;;;;;5083108;28;20044;-69
2022/01/22 11:44:16;;;;;;;2.17;1.20;;;;;;;;;;5083009;28;20067;-70
2022/01/22 11:46:58;;;;;;;3.83;1.30;;;;;;;;;;5083395;28;20024;-69
2022/01/22 11:49:27;;;;;;;3.13;1.50;;;;;;;;;;5064758;28;20055;-69
2022/01/22 11:52:15;;;;;;;4.43;1.35;;;;;;;;;;5082968;28;20365;-69
2022/01/22 11:55:07;;;;;;;3.35;0.90;;;;;;;;;;5065263;28;20036;-69
2022/01/22 11:57:36;;;;;;;2.63;1.58;;;;;;;;;;5064424;28;20028;-69
2022/01/22 12:00:21;;;;;;;3.53;1.38;;;;;;;;;;5082267;28;20021;-69
2022/01/22 12:03:08;;;;;;;2.03;1.20;;;;;;;;;;5082276;28;20115;-69
2022/01/22 12:05:49;;;;;;;3.58;1.30;;;;;;;;;;5064403;28;20575;-69
2022/01/22 12:08:17;;;;;;;3.30;1.52;;;;;;;;;;5082207;28;20037;-69
2022/01/22 12:14:25;;;;;;;2.55;0.98;;;;;;;;;;5082711;28;20052;-69
2022/01/22 12:16:41;;;;;;;3.05;1.50;;;;;;;;;;5082631;28;20094;-69
2022/01/22 12:19:48;;;;;;;4.40;1.30;;;;;;;;;;5082574;28;20056;-69
2022/01/22 12:22:50;;;;;;;4.28;1.30;;;;;;;;;;5082671;28;20035;-69
2022/01/22 12:25:16;;;;;;;3.60;1.50;;;;;;;;;;5082866;28;20036;-69
2022/01/22 12:27:50;;;;;;;3.63;1.23;;;;;;;;;;5082682;28;20032;-68
2022/01/22 12:30:45;;;;;;;4.43;1.10;;;;;;;;;;5083808;28;20032;-68
2022/01/22 12:33:27;;;;;;;3.08;1.13;;;;;;;;;;5086693;28;20602;-69
2022/01/22 12:35:57;;;;;;;4.70;1.17;;;;;;;;;;5087017;28;20033;-68
2022/01/22 12:38:43;;;;;;;4.68;1.17;;;;;;;;;;5086777;28;20025;-68
2022/01/22 12:44:29;;;;;;;2.25;1.00;;;;;;;;;;5086501;28;20077;-68
2022/01/22 12:46:57;;;;;;;2.15;1.00;;;;;;;;;;5086985;28;20054;-71
2022/01/22 12:49:24;;;;;;;2.70;1.10;;;;;;;;;;5086337;28;20024;-70
2022/01/22 12:51:58;;;;;;;4.88;1.88;;;;;;;;;;5086064;28;20025;-69
2022/01/22 12:54:38;;;;;;;3.20;1.30;;;;;;;;;;5085748;28;20059;-69
2022/01/22 12:57:11;;;;;;;1.63;0.98;;;;;;;;;;5085783;28;20407;-68
2022/01/22 12:59:49;;;;;;;7.28;1.42;;;;;;;;;;5085531;28;20028;-68
2022/01/22 13:02:15;;;;;;;2.70;1.35;;;;;;;;;;5066753;28;20024;-69
2022/01/22 13:04:40;;;;;;;1.67;0.98;;;;;;;;;;5084998;28;20431;-70
2022/01/22 13:07:12;;;;;;;7.70;1.50;;;;;;;;;;5085574;28;20027;-69
2022/01/22 13:09:48;;;;;;;7.70;1.45;;;;;;;;;;5085313;28;20032;-68
2022/01/22 13:12:16;;;;;;;4.25;1.33;;;;;;;;;;5086009;28;20055;-69
2022/01/22 13:14:43;;;;;;;2.50;1.40;;;;;;;;;;5085526;28;20031;-69
2022/01/22 13:17:13;;;;;;;3.33;1.67;;;;;;;;;;5085840;28;20088;-68
2022/01/22 13:19:39;;;;;;;4.20;1.70;;;;;;;;;;5085963;28;20321;-69
2022/01/22 13:22:05;;;;;;;3.22;1.27;;;;;;;;;;5085999;28;20045;-68
2022/01/22 13:24:31;;;;;;;3.35;1.40;;;;;;;;;;5085538;28;20035;-71
2022/01/22 13:27:03;;;;;;;2.83;1.40;;;;;;;;;;5085714;28;20058;-70
2022/01/22 13:29:34;;;;;;;2.85;1.45;;;;;;;;;;5085679;28;20020;-70
2022/01/22 13:32:27;;;;;;;2.45;1.23;;;;;;;;;;5067424;28;20032;-69
2022/01/22 13:49:02;;;;;;;5.43;1.33;;;;;;;;;;5085623;28;20133;-69
2022/01/22 13:51:29;;;;;;;4.93;1.95;;;;;;;;;;5085752;28;20025;-70
2022/01/22 13:53:59;;;;;;;7.70;1.60;;;;;;;;;;5067351;28;20661;-70
2022/01/22 13:56:53;;;;;;;4.82;1.85;;;;;;;;;;5085886;28;20039;-69
2022/01/22 13:59:20;;;;;;;3.83;1.50;;;;;;;;;;5067636;28;20024;-70
2022/01/22 14:02:03;;;;;;;4.28;1.30;;;;;;;;;;5085220;28;20092;-70
2022/01/22 14:04:38;;;;;;;4.80;1.35;;;;;;;;;;5085017;28;20044;-68
2022/01/22 14:07:14;;;;;;;5.85;1.67;;;;;;;;;;5085648;28;20025;-68
2022/01/22 14:09:50;;;;;;;6.13;1.70;;;;;;;;;;5084799;28;20028;-68
2022/01/22 14:12:17;;;;;;;2.75;1.50;;;;;;;;;;5084841;28;20488;-69
2022/01/22 14:15:09;;;;;;;2.30;1.30;;;;;;;;;;5085086;28;20040;-69
2022/01/22 14:17:51;;;;;;;4.97;1.70;;;;;;;;;;5084234;28;20344;-69
2022/01/22 14:20:22;;;;;;;4.07;1.52;;;;;;;;;;5084658;28;20360;-69
2022/01/22 14:23:01;;;;;;;2.40;1.30;;;;;;;;;;5066223;28;20580;-70
2022/01/22 14:25:27;;;;;;;4.60;1.20;;;;;;;;;;5084466;28;20051;-69
2022/01/22 14:28:09;;;;;;;3.97;1.48;;;;;;;;;;5084177;28;20033;-69
2022/01/22 14:30:38;;;;;;;5.78;1.40;;;;;;;;;;5084095;28;20036;-68
2022/01/22 14:33:05;;;;;;;2.60;1.40;;;;;;;;;;5084071;28;20028;-69
2022/01/22 14:35:32;;;;;;;4.70;1.50;;;;;;;;;;5083913;28;20033;-69
2022/01/22 14:38:23;;;;;;;4.50;1.85;;;;;;;;;;5083580;28;20025;-68
2022/01/22 14:44:24;;;;;;;3.88;1.50;;;;;;;;;;5082993;28;20130;-68
2022/01/22 14:46:55;;;;;;;5.25;1.30;;;;;;;;;;5083333;28;20146;-69
2022/01/22 14:49:29;;;;;;;3.50;1.50;;;;;;;;;;5083001;28;20036;-72
2022/01/22 14:51:55;;;;;;;;;;;;;;;;;;5084319;28;20092;-68
2022/01/22 14:54:22;;;;;;;5.63;1.67;;;;;;;;;;5083480;28;19908;-70
2022/01/22 14:56:47;;;;;;;3.80;1.33;;;;;;;;;;5083979;28;20049;-71
2022/01/22 14:59:13;;;;;;;4.55;1.33;;;;;;;;;;5083750;28;20088;-69
2022/01/22 15:01:38;;;;;;;3.47;1.10;;;;;;;;;;5084109;28;20024;-68
2022/01/22 15:04:04;;;;;;;2.55;1.33;;;;;;;;;;5082767;28;20044;-70
2022/01/22 15:06:29;;;;;;;2.45;1.33;;;;;;;;;;5065138;28;20029;-69
2022/01/22 15:08:55;;;;;;;9.27;1.83;;;;;;;;;;5083250;28;20032;-69
2022/01/22 15:11:20;;;;;;;5.00;1.25;;;;;;;;;;5082075;28;20120;-70
2022/01/22 15:13:46;;;;;;;3.72;1.33;;;;;;;;;;5082439;28;20100;-71
2022/01/22 15:16:17;;;;;;;3.45;1.30;;;;;;;;;;5081733;28;20025;-69
2022/01/22 15:19:00;;;;;;;4.47;1.40;;;;;;;;;;5082671;28;20053;-70
2022/01/22 15:21:26;;;;;;;3.83;1.10;;;;;;;;;;5082661;28;20025;-69
2022/01/22 15:23:52;;;;;;;4.10;1.25;;;;;;;;;;5082865;28;20029;-70
2022/01/22 15:26:17;;;;;;;6.03;1.33;;;;;;;;;;5083257;28;20024;-69
2022/01/22 15:28:44;;;;;;;1.67;0.90;;;;;;;;;;5083063;28;20035;-70
2022/01/22 15:31:27;;;;;;;3.95;1.17;;;;;;;;;;5083334;28;20013;-70
2022/01/22 15:33:54;;;;;;;2.47;0.80;;;;;;;;;;5083252;28;20032;-71
2022/01/22 15:36:19;;;;;;;3.03;0.95;;;;;;;;;;5065254;28;20028;-71
2022/01/22 15:38:45;;;;;;;4.07;1.17;;;;;;;;;;5083347;28;20066;-70
2022/01/22 15:41:10;;;;;;;3.65;0.98;;;;;;;;;;5083357;28;20021;-70
2022/01/22 15:43:36;;;;;;;3.38;1.23;;;;;;;;;;5082683;28;20036;-69
2022/01/22 15:46:01;;;;;;;3.95;1.25;;;;;;;;;;5082416;28;20153;-70
2022/01/22 15:48:27;;;;;;;2.92;1.48;;;;;;;;;;5082225;28;20056;-70
2022/01/22 15:50:52;;;;;;;5.97;1.90;;;;;;;;;;5080413;28;20028;-70
2022/01/22 15:53:18;;;;;;;3.70;1.45;;;;;;;;;;5082816;28;20032;-70
2022/01/22 15:55:45;;;;;;;2.05;1.10;;;;;;;;;;5064705;28;20056;-69
2022/01/22 15:58:11;;;;;;;2.65;1.30;;;;;;;;;;5063960;28;20035;-71
2022/01/22 16:00:40;;;;;;;8.65;1.63;;;;;;;;;;5082622;28;20036;-70
2022/01/22 16:03:06;;;;;;;5.68;1.30;;;;;;;;;;5081287;28;20420;-69
2022/01/22 16:05:32;;;;;;;3.10;1.30;;;;;;;;;;5081676;28;20025;-71
2022/01/22 16:07:58;;;;;;;4.03;1.25;;;;;;;;;;5081937;28;20062;-71
2022/01/22 16:10:24;;;;;;;2.05;1.13;;;;;;;;;;5082569;28;20053;-69
2022/01/22 16:12:49;;;;;;;4.53;1.15;;;;;;;;;;5082255;28;20063;-69
2022/01/22 16:15:16;;;;;;;3.75;1.40;;;;;;;;;;5081336;28;20024;-70
2022/01/22 16:17:43;;;;;;;2.72;1.27;;;;;;;;;;5081336;28;20024;-70
2022/01/22 16:20:09;;;;;;;5.07;1.45;;;;;;;;;;5064026;28;20021;-69
2022/01/22 16:22:35;;;;;;;2.28;1.25;;;;;;;;;;5082214;28;20032;-70
2022/01/22 16:25:05;;;;;;;6.70;1.38;;;;;;;;;;5063797;28;20020;-69
2022/01/22 16:27:32;;;;;;;6.03;1.50;;;;;;;;;;5063087;28;20069;-70
2022/01/22 16:29:58;;;;;;;4.82;1.23;;;;;;;;;;5080799;28;20032;-70
2022/01/22 16:32:25;;;;;;;4.55;1.20;;;;;;;;;;5081779;28;20076;-70
2022/01/22 16:34:54;;;;;;;5.88;1.15;;;;;;;;;;5080785;28;20036;-70
2022/01/22 16:37:21;;;;;;;4.05;1.48;;;;;;;;;;5081824;28;20028;-69
2022/01/22 16:39:48;;;;;;;1.67;1.02;;;;;;;;;;5080731;28;20032;-69
2022/01/22 16:42:17;;;;;;;2.88;1.13;;;;;;;;;;5081987;28;20400;-72